sensor_id;sensor_type;location;lat;lon;timestamp;temperature;humidity
4406;DHT22;2216;53.806;11.598;2023-09-30T00:02:06;13.80;70.50
4406;DHT22;2216;53.806;11.598;2023-09-30T00:04:32;13.80;71.30
4406;DHT22;2216;53.806;11.598;2023-09-30T00:06:58;13.80;70.60
4406;DHT22;2216;53.806;11.598;2023-09-30T00:09:24;13.80;71.30
4406;DHT22;2216;53.806;11.598;2023-09-30T00:11:50;13.70;70.50
4406;DHT22;2216;53.806;11.598;2023-09-30T00:14:16;13.70;70.50
4406;DHT22;2216;53.806;11.598;2023-09-30T00:16:42;13.70;70.50
4406;DHT22;2216;53.806;11.598;2023-09-30T00:19:08;13.60;70.50
4406;DHT22;2216;53.806;11.598;2023-09-30T00:21:35;13.60;70.50
4406;DHT22;2216;53.806;11.598;2023-09-30T00:24:00;13.60;70.50
4406;DHT22;2216;53.806;11.598;2023-09-30T00:26:26;13.60;70.50
4406;DHT22;2216;53.806;11.598;2023-09-30T00:28:52;13.50;70.50
4406;DHT22;2216;53.806;11.598;2023-09-30T00:31:17;13.50;70.50
4406;DHT22;2216;53.806;11.598;2023-09-30T00:33:43;13.70;70.70
4406;DHT22;2216;53.806;11.598;2023-09-30T00:36:10;13.50;70.60
4406;DHT22;2216;53.806;11.598;2023-09-30T00:38:37;13.40;70.50
4406;DHT22;2216;53.806;11.598;2023-09-30T00:41:03;13.40;70.50
4406;DHT22;2216;53.806;11.598;2023-09-30T00:43:29;13.30;70.50
4406;DHT22;2216;53.806;11.598;2023-09-30T00:46:28;13.30;70.50
4406;DHT22;2216;53.806;11.598;2023-09-30T00:48:55;13.30;70.50
4406;DHT22;2216;53.806;11.598;2023-09-30T00:51:23;13.30;70.60
4406;DHT22;2216;53.806;11.598;2023-09-30T00:53:50;13.20;70.50
4406;DHT22;2216;53.806;11.598;2023-09-30T00:56:18;13.20;70.50
4406;DHT22;2216;53.806;11.598;2023-09-30T00:58:46;13.20;70.60
4406;DHT22;2216;53.806;11.598;2023-09-30T01:01:13;13.20;70.60
4406;DHT22;2216;53.806;11.598;2023-09-30T01:03:39;13.10;70.60
4406;DHT22;2216;53.806;11.598;2023-09-30T01:06:05;13.10;70.60
4406;DHT22;2216;53.806;11.598;2023-09-30T01:08:32;13.10;70.70
4406;DHT22;2216;53.806;11.598;2023-09-30T01:10:59;13.10;70.70
4406;DHT22;2216;53.806;11.598;2023-09-30T01:13:35;13.00;71.50
4406;DHT22;2216;53.806;11.598;2023-09-30T01:16:05;13.00;70.90
4406;DHT22;2216;53.806;11.598;2023-09-30T01:18:32;13.00;70.80
4406;DHT22;2216;53.806;11.598;2023-09-30T01:21:03;13.00;70.90
4406;DHT22;2216;53.806;11.598;2023-09-30T01:23:33;13.00;70.90
4406;DHT22;2216;53.806;11.598;2023-09-30T01:26:04;13.00;70.90
4406;DHT22;2216;53.806;11.598;2023-09-30T01:28:35;13.00;70.90
4406;DHT22;2216;53.806;11.598;2023-09-30T01:31:01;13.00;70.90
4406;DHT22;2216;53.806;11.598;2023-09-30T01:33:27;13.00;70.90
4406;DHT22;2216;53.806;11.598;2023-09-30T01:35:53;13.00;70.90
4406;DHT22;2216;53.806;11.598;2023-09-30T01:38:19;13.00;70.90
4406;DHT22;2216;53.806;11.598;2023-09-30T01:40:46;13.00;71.00
4406;DHT22;2216;53.806;11.598;2023-09-30T01:43:13;12.90;70.90
4406;DHT22;2216;53.806;11.598;2023-09-30T01:45:40;12.90;70.90
4406;DHT22;2216;53.806;11.598;2023-09-30T01:48:06;13.00;70.90
4406;DHT22;2216;53.806;11.598;2023-09-30T01:50:32;13.00;71.00
4406;DHT22;2216;53.806;11.598;2023-09-30T01:52:58;12.90;71.00
4406;DHT22;2216;53.806;11.598;2023-09-30T01:55:23;12.90;71.10
4406;DHT22;2216;53.806;11.598;2023-09-30T01:57:49;12.90;71.10
4406;DHT22;2216;53.806;11.598;2023-09-30T02:00:15;12.90;71.10
4406;DHT22;2216;53.806;11.598;2023-09-30T02:02:42;12.90;71.30
4406;DHT22;2216;53.806;11.598;2023-09-30T02:05:08;12.90;71.30
4406;DHT22;2216;53.806;11.598;2023-09-30T02:07:34;12.90;71.30
4406;DHT22;2216;53.806;11.598;2023-09-30T02:10:00;12.90;71.30
4406;DHT22;2216;53.806;11.598;2023-09-30T02:12:27;12.90;71.20
4406;DHT22;2216;53.806;11.598;2023-09-30T02:14:54;12.90;71.30
4406;DHT22;2216;53.806;11.598;2023-09-30T02:17:19;12.90;71.20
4406;DHT22;2216;53.806;11.598;2023-09-30T02:19:45;12.90;71.40
4406;DHT22;2216;53.806;11.598;2023-09-30T02:22:12;12.90;71.40
4406;DHT22;2216;53.806;11.598;2023-09-30T02:24:38;12.90;71.40
4406;DHT22;2216;53.806;11.598;2023-09-30T02:27:05;12.90;71.30
4406;DHT22;2216;53.806;11.598;2023-09-30T02:29:31;12.90;71.30
4406;DHT22;2216;53.806;11.598;2023-09-30T02:31:56;12.90;71.30
4406;DHT22;2216;53.806;11.598;2023-09-30T02:34:22;12.90;71.30
4406;DHT22;2216;53.806;11.598;2023-09-30T02:36:49;12.80;71.20
4406;DHT22;2216;53.806;11.598;2023-09-30T02:39:15;12.80;71.40
4406;DHT22;2216;53.806;11.598;2023-09-30T02:41:42;12.80;71.50
4406;DHT22;2216;53.806;11.598;2023-09-30T02:44:08;12.80;71.40
4406;DHT22;2216;53.806;11.598;2023-09-30T02:46:34;12.80;71.40
4406;DHT22;2216;53.806;11.598;2023-09-30T02:49:01;12.80;71.40
4406;DHT22;2216;53.806;11.598;2023-09-30T02:51:27;12.80;71.40
4406;DHT22;2216;53.806;11.598;2023-09-30T02:53:53;12.80;71.40
4406;DHT22;2216;53.806;11.598;2023-09-30T02:56:19;12.80;71.40
4406;DHT22;2216;53.806;11.598;2023-09-30T02:58:46;12.80;71.50
4406;DHT22;2216;53.806;11.598;2023-09-30T03:01:15;12.80;71.60
4406;DHT22;2216;53.806;11.598;2023-09-30T03:03:42;12.80;71.50
4406;DHT22;2216;53.806;11.598;2023-09-30T03:06:10;12.80;71.80
4406;DHT22;2216;53.806;11.598;2023-09-30T03:08:36;12.80;71.60
4406;DHT22;2216;53.806;11.598;2023-09-30T03:11:02;12.80;71.50
4406;DHT22;2216;53.806;11.598;2023-09-30T03:13:29;12.80;71.70
4406;DHT22;2216;53.806;11.598;2023-09-30T03:15:56;12.80;71.80
4406;DHT22;2216;53.806;11.598;2023-09-30T03:18:22;12.80;71.60
4406;DHT22;2216;53.806;11.598;2023-09-30T03:20:52;12.80;71.80
4406;DHT22;2216;53.806;11.598;2023-09-30T03:23:28;12.80;72.40
4406;DHT22;2216;53.806;11.598;2023-09-30T03:25:59;12.80;71.70
4406;DHT22;2216;53.806;11.598;2023-09-30T03:28:26;12.80;71.70
4406;DHT22;2216;53.806;11.598;2023-09-30T03:30:52;12.80;71.80
4406;DHT22;2216;53.806;11.598;2023-09-30T03:33:18;12.80;72.00
4406;DHT22;2216;53.806;11.598;2023-09-30T03:35:43;12.80;71.90
4406;DHT22;2216;53.806;11.598;2023-09-30T03:38:10;12.90;72.00
4406;DHT22;2216;53.806;11.598;2023-09-30T03:40:39;12.90;72.00
4406;DHT22;2216;53.806;11.598;2023-09-30T03:43:05;12.90;72.10
4406;DHT22;2216;53.806;11.598;2023-09-30T03:45:31;12.90;71.80
4406;DHT22;2216;53.806;11.598;2023-09-30T03:48:01;12.90;71.70
4406;DHT22;2216;53.806;11.598;2023-09-30T03:50:28;12.90;71.70
4406;DHT22;2216;53.806;11.598;2023-09-30T03:53:04;12.90;71.70
4406;DHT22;2216;53.806;11.598;2023-09-30T03:55:31;12.90;71.80
4406;DHT22;2216;53.806;11.598;2023-09-30T03:57:57;12.90;71.70
4406;DHT22;2216;53.806;11.598;2023-09-30T04:00:23;12.90;71.90
4406;DHT22;2216;53.806;11.598;2023-09-30T04:02:50;12.90;71.80
4406;DHT22;2216;53.806;11.598;2023-09-30T04:05:21;12.90;71.80
4406;DHT22;2216;53.806;11.598;2023-09-30T04:07:52;12.90;71.90
4406;DHT22;2216;53.806;11.598;2023-09-30T04:10:17;12.90;71.90
4406;DHT22;2216;53.806;11.598;2023-09-30T04:12:43;12.90;71.90
4406;DHT22;2216;53.806;11.598;2023-09-30T04:15:09;12.90;71.90
4406;DHT22;2216;53.806;11.598;2023-09-30T04:17:38;12.90;72.00
4406;DHT22;2216;53.806;11.598;2023-09-30T04:20:06;12.90;71.90
4406;DHT22;2216;53.806;11.598;2023-09-30T04:22:41;12.90;71.80
4406;DHT22;2216;53.806;11.598;2023-09-30T04:25:07;12.90;72.00
4406;DHT22;2216;53.806;11.598;2023-09-30T04:27:36;12.90;72.00
4406;DHT22;2216;53.806;11.598;2023-09-30T04:30:03;12.90;71.90
4406;DHT22;2216;53.806;11.598;2023-09-30T04:32:37;12.80;72.50
4406;DHT22;2216;53.806;11.598;2023-09-30T04:35:04;12.80;72.00
4406;DHT22;2216;53.806;11.598;2023-09-30T04:37:30;12.80;72.10
4406;DHT22;2216;53.806;11.598;2023-09-30T04:39:56;12.80;72.10
4406;DHT22;2216;53.806;11.598;2023-09-30T04:42:23;12.80;72.00
4406;DHT22;2216;53.806;11.598;2023-09-30T04:44:51;12.80;72.10
4406;DHT22;2216;53.806;11.598;2023-09-30T04:47:17;12.80;72.10
4406;DHT22;2216;53.806;11.598;2023-09-30T04:49:46;12.70;72.00
4406;DHT22;2216;53.806;11.598;2023-09-30T04:52:12;12.90;72.20
4406;DHT22;2216;53.806;11.598;2023-09-30T04:54:38;12.80;72.00
4406;DHT22;2216;53.806;11.598;2023-09-30T04:57:03;12.80;72.10
4406;DHT22;2216;53.806;11.598;2023-09-30T04:59:29;12.80;72.00
4406;DHT22;2216;53.806;11.598;2023-09-30T05:01:55;12.80;72.00
4406;DHT22;2216;53.806;11.598;2023-09-30T05:04:21;12.80;72.70
4406;DHT22;2216;53.806;11.598;2023-09-30T05:06:49;12.80;72.00
4406;DHT22;2216;53.806;11.598;2023-09-30T05:09:15;12.80;72.00
4406;DHT22;2216;53.806;11.598;2023-09-30T05:11:41;12.80;72.10
4406;DHT22;2216;53.806;11.598;2023-09-30T05:14:06;12.80;72.00
4406;DHT22;2216;53.806;11.598;2023-09-30T05:16:32;12.70;72.20
4406;DHT22;2216;53.806;11.598;2023-09-30T05:18:58;12.80;72.10
4406;DHT22;2216;53.806;11.598;2023-09-30T05:21:23;12.80;72.10
4406;DHT22;2216;53.806;11.598;2023-09-30T05:23:49;12.80;72.40
4406;DHT22;2216;53.806;11.598;2023-09-30T05:26:15;12.80;72.20
4406;DHT22;2216;53.806;11.598;2023-09-30T05:28:42;12.70;72.10
4406;DHT22;2216;53.806;11.598;2023-09-30T05:31:08;12.70;72.10
4406;DHT22;2216;53.806;11.598;2023-09-30T05:33:33;12.70;72.10
4406;DHT22;2216;53.806;11.598;2023-09-30T05:36:01;12.70;72.10
4406;DHT22;2216;53.806;11.598;2023-09-30T05:38:28;12.70;72.20
4406;DHT22;2216;53.806;11.598;2023-09-30T05:40:56;12.70;72.30
4406;DHT22;2216;53.806;11.598;2023-09-30T05:43:24;12.70;72.40
4406;DHT22;2216;53.806;11.598;2023-09-30T05:45:50;12.70;72.70
4406;DHT22;2216;53.806;11.598;2023-09-30T05:48:20;12.70;72.70
4406;DHT22;2216;53.806;11.598;2023-09-30T05:50:46;12.80;72.90
4406;DHT22;2216;53.806;11.598;2023-09-30T05:53:12;12.80;72.70
4406;DHT22;2216;53.806;11.598;2023-09-30T05:55:39;12.80;72.70
4406;DHT22;2216;53.806;11.598;2023-09-30T05:58:14;12.90;72.80
4406;DHT22;2216;53.806;11.598;2023-09-30T06:00:42;12.90;73.30
4406;DHT22;2216;53.806;11.598;2023-09-30T06:03:09;13.00;73.10
4406;DHT22;2216;53.806;11.598;2023-09-30T06:05:39;13.00;73.20
4406;DHT22;2216;53.806;11.598;2023-09-30T06:08:05;13.00;73.20
4406;DHT22;2216;53.806;11.598;2023-09-30T06:10:34;13.10;73.20
4406;DHT22;2216;53.806;11.598;2023-09-30T06:13:00;13.10;73.00
4406;DHT22;2216;53.806;11.598;2023-09-30T06:15:27;13.40;73.10
4406;DHT22;2216;53.806;11.598;2023-09-30T06:17:54;13.20;72.90
4406;DHT22;2216;53.806;11.598;2023-09-30T06:20:21;13.30;72.90
4406;DHT22;2216;53.806;11.598;2023-09-30T06:22:51;13.30;73.00
4406;DHT22;2216;53.806;11.598;2023-09-30T06:25:19;13.30;73.00
4406;DHT22;2216;53.806;11.598;2023-09-30T06:27:47;13.40;73.00
4406;DHT22;2216;53.806;11.598;2023-09-30T06:30:14;13.40;73.00
4406;DHT22;2216;53.806;11.598;2023-09-30T06:32:45;13.40;72.80
4406;DHT22;2216;53.806;11.598;2023-09-30T06:35:11;13.50;73.00
4406;DHT22;2216;53.806;11.598;2023-09-30T06:37:40;13.50;73.00
4406;DHT22;2216;53.806;11.598;2023-09-30T06:40:07;13.50;72.80
4406;DHT22;2216;53.806;11.598;2023-09-30T06:42:35;13.50;73.00
4406;DHT22;2216;53.806;11.598;2023-09-30T06:45:01;13.60;73.00
4406;DHT22;2216;53.806;11.598;2023-09-30T06:47:34;13.60;72.80
4406;DHT22;2216;53.806;11.598;2023-09-30T06:50:01;13.60;72.70
4406;DHT22;2216;53.806;11.598;2023-09-30T06:52:38;13.60;72.60
4406;DHT22;2216;53.806;11.598;2023-09-30T06:55:06;13.60;72.80
4406;DHT22;2216;53.806;11.598;2023-09-30T06:57:34;13.60;72.80
4406;DHT22;2216;53.806;11.598;2023-09-30T07:00:01;13.60;72.70
4406;DHT22;2216;53.806;11.598;2023-09-30T07:02:29;13.70;72.80
4406;DHT22;2216;53.806;11.598;2023-09-30T07:04:55;13.70;72.70
4406;DHT22;2216;53.806;11.598;2023-09-30T07:07:21;13.70;72.80
4406;DHT22;2216;53.806;11.598;2023-09-30T07:09:47;13.70;72.70
4406;DHT22;2216;53.806;11.598;2023-09-30T07:12:13;13.70;72.80
4406;DHT22;2216;53.806;11.598;2023-09-30T07:14:39;13.70;73.00
4406;DHT22;2216;53.806;11.598;2023-09-30T07:17:04;13.70;72.80
4406;DHT22;2216;53.806;11.598;2023-09-30T07:19:30;13.70;72.80
4406;DHT22;2216;53.806;11.598;2023-09-30T07:21:56;13.80;73.20
4406;DHT22;2216;53.806;11.598;2023-09-30T07:24:22;13.80;73.00
4406;DHT22;2216;53.806;11.598;2023-09-30T07:26:47;13.80;73.10
4406;DHT22;2216;53.806;11.598;2023-09-30T07:29:13;13.80;73.10
4406;DHT22;2216;53.806;11.598;2023-09-30T07:31:39;13.90;73.00
4406;DHT22;2216;53.806;11.598;2023-09-30T07:34:04;13.90;73.00
4406;DHT22;2216;53.806;11.598;2023-09-30T07:36:30;13.90;73.00
4406;DHT22;2216;53.806;11.598;2023-09-30T07:38:56;13.90;72.90
4406;DHT22;2216;53.806;11.598;2023-09-30T07:41:22;14.00;73.00
4406;DHT22;2216;53.806;11.598;2023-09-30T07:43:47;14.00;72.90
4406;DHT22;2216;53.806;11.598;2023-09-30T07:46:13;14.10;73.00
4406;DHT22;2216;53.806;11.598;2023-09-30T07:48:40;14.10;72.70
4406;DHT22;2216;53.806;11.598;2023-09-30T07:51:06;14.20;73.50
4406;DHT22;2216;53.806;11.598;2023-09-30T07:53:35;14.30;73.40
4406;DHT22;2216;53.806;11.598;2023-09-30T07:56:01;14.30;73.50
4406;DHT22;2216;53.806;11.598;2023-09-30T07:58:26;14.50;73.80
4406;DHT22;2216;53.806;11.598;2023-09-30T08:00:52;14.50;73.60
4406;DHT22;2216;53.806;11.598;2023-09-30T08:03:18;14.60;73.60
4406;DHT22;2216;53.806;11.598;2023-09-30T08:05:44;14.70;73.70
4406;DHT22;2216;53.806;11.598;2023-09-30T08:08:11;14.80;73.80
4406;DHT22;2216;53.806;11.598;2023-09-30T08:10:37;14.90;73.80
4406;DHT22;2216;53.806;11.598;2023-09-30T08:13:03;15.00;73.80
4406;DHT22;2216;53.806;11.598;2023-09-30T08:15:29;15.10;73.90
4406;DHT22;2216;53.806;11.598;2023-09-30T08:17:56;15.20;73.80
4406;DHT22;2216;53.806;11.598;2023-09-30T08:20:21;15.30;73.80
4406;DHT22;2216;53.806;11.598;2023-09-30T08:22:47;15.40;74.10
4406;DHT22;2216;53.806;11.598;2023-09-30T08:25:13;15.50;74.00
4406;DHT22;2216;53.806;11.598;2023-09-30T08:27:39;15.60;74.00
4406;DHT22;2216;53.806;11.598;2023-09-30T08:30:05;15.80;73.90
4406;DHT22;2216;53.806;11.598;2023-09-30T08:32:35;15.80;73.90
4406;DHT22;2216;53.806;11.598;2023-09-30T08:35:02;16.00;73.90
4406;DHT22;2216;53.806;11.598;2023-09-30T08:37:29;16.10;73.80
4406;DHT22;2216;53.806;11.598;2023-09-30T08:39:55;16.20;73.90
4406;DHT22;2216;53.806;11.598;2023-09-30T08:42:22;16.20;73.70
4406;DHT22;2216;53.806;11.598;2023-09-30T08:44:52;16.40;73.60
4406;DHT22;2216;53.806;11.598;2023-09-30T08:47:21;16.50;73.50
4406;DHT22;2216;53.806;11.598;2023-09-30T08:49:48;16.50;73.30
4406;DHT22;2216;53.806;11.598;2023-09-30T08:52:15;16.60;73.30
4406;DHT22;2216;53.806;11.598;2023-09-30T08:54:41;16.70;73.50
4406;DHT22;2216;53.806;11.598;2023-09-30T08:57:09;16.80;73.40
4406;DHT22;2216;53.806;11.598;2023-09-30T08:59:35;16.90;73.50
4406;DHT22;2216;53.806;11.598;2023-09-30T09:02:05;17.00;73.40
4406;DHT22;2216;53.806;11.598;2023-09-30T09:04:36;17.10;73.40
4406;DHT22;2216;53.806;11.598;2023-09-30T09:07:02;17.20;73.30
4406;DHT22;2216;53.806;11.598;2023-09-30T09:09:28;17.30;73.30
4406;DHT22;2216;53.806;11.598;2023-09-30T09:11:54;17.40;73.40
4406;DHT22;2216;53.806;11.598;2023-09-30T09:14:41;17.50;73.40
4406;DHT22;2216;53.806;11.598;2023-09-30T09:17:09;17.60;73.40
4406;DHT22;2216;53.806;11.598;2023-09-30T09:19:36;17.80;73.50
4406;DHT22;2216;53.806;11.598;2023-09-30T09:22:03;17.90;74.00
4406;DHT22;2216;53.806;11.598;2023-09-30T09:24:33;17.90;73.50
4406;DHT22;2216;53.806;11.598;2023-09-30T09:27:10;18.10;73.40
4406;DHT22;2216;53.806;11.598;2023-09-30T09:29:38;18.20;73.50
4406;DHT22;2216;53.806;11.598;2023-09-30T09:32:12;18.30;73.40
4406;DHT22;2216;53.806;11.598;2023-09-30T09:34:39;18.40;73.40
4406;DHT22;2216;53.806;11.598;2023-09-30T09:39:55;18.60;73.30
4406;DHT22;2216;53.806;11.598;2023-09-30T09:42:30;18.70;73.20
4406;DHT22;2216;53.806;11.598;2023-09-30T09:44:58;18.80;73.00
4406;DHT22;2216;53.806;11.598;2023-09-30T09:47:25;18.90;73.00
4406;DHT22;2216;53.806;11.598;2023-09-30T09:49:52;19.00;73.10
4406;DHT22;2216;53.806;11.598;2023-09-30T09:52:19;19.10;73.00
4406;DHT22;2216;53.806;11.598;2023-09-30T09:54:46;19.20;73.00
4406;DHT22;2216;53.806;11.598;2023-09-30T09:57:12;19.30;72.90
4406;DHT22;2216;53.806;11.598;2023-09-30T09:59:42;19.40;72.90
4406;DHT22;2216;53.806;11.598;2023-09-30T10:02:12;19.50;72.60
4406;DHT22;2216;53.806;11.598;2023-09-30T10:04:41;19.60;72.60
4406;DHT22;2216;53.806;11.598;2023-09-30T10:07:14;19.80;72.60
4406;DHT22;2216;53.806;11.598;2023-09-30T10:09:49;19.80;72.60
4406;DHT22;2216;53.806;11.598;2023-09-30T10:12:18;19.90;72.50
4406;DHT22;2216;53.806;11.598;2023-09-30T10:14:44;20.00;72.50
4406;DHT22;2216;53.806;11.598;2023-09-30T10:17:10;20.10;72.50
4406;DHT22;2216;53.806;11.598;2023-09-30T10:19:35;20.20;72.90
4406;DHT22;2216;53.806;11.598;2023-09-30T10:24:43;20.50;72.60
4406;DHT22;2216;53.806;11.598;2023-09-30T10:40:47;21.00;71.70
4406;DHT22;2216;53.806;11.598;2023-09-30T10:45:58;21.00;71.30
4406;DHT22;2216;53.806;11.598;2023-09-30T10:51:16;21.00;70.90
4406;DHT22;2216;53.806;11.598;2023-09-30T10:53:53;20.90;71.00
4406;DHT22;2216;53.806;11.598;2023-09-30T10:56:23;21.00;71.40
4406;DHT22;2216;53.806;11.598;2023-09-30T10:58:50;21.00;71.30
4406;DHT22;2216;53.806;11.598;2023-09-30T11:01:21;21.00;71.30
4406;DHT22;2216;53.806;11.598;2023-09-30T11:03:49;21.10;71.40
4406;DHT22;2216;53.806;11.598;2023-09-30T11:06:20;21.10;70.80
4406;DHT22;2216;53.806;11.598;2023-09-30T11:08:57;21.10;70.90
4406;DHT22;2216;53.806;11.598;2023-09-30T11:11:52;21.20;71.00
4406;DHT22;2216;53.806;11.598;2023-09-30T11:14:30;21.20;71.10
4406;DHT22;2216;53.806;11.598;2023-09-30T11:17:03;21.20;71.20
4406;DHT22;2216;53.806;11.598;2023-09-30T11:19:46;21.30;71.10
4406;DHT22;2216;53.806;11.598;2023-09-30T11:22:15;21.30;71.00
4406;DHT22;2216;53.806;11.598;2023-09-30T11:24:41;21.30;71.10
4406;DHT22;2216;53.806;11.598;2023-09-30T11:27:07;21.30;71.20
4406;DHT22;2216;53.806;11.598;2023-09-30T11:29:34;21.40;71.20
4406;DHT22;2216;53.806;11.598;2023-09-30T11:31:59;21.40;71.10
4406;DHT22;2216;53.806;11.598;2023-09-30T11:34:36;21.50;71.00
4406;DHT22;2216;53.806;11.598;2023-09-30T11:37:03;21.60;71.00
4406;DHT22;2216;53.806;11.598;2023-09-30T11:39:29;21.60;71.00
4406;DHT22;2216;53.806;11.598;2023-09-30T11:41:56;21.70;70.40
4406;DHT22;2216;53.806;11.598;2023-09-30T11:44:26;21.70;70.40
4406;DHT22;2216;53.806;11.598;2023-09-30T11:49:39;21.70;70.60
4406;DHT22;2216;53.806;11.598;2023-09-30T11:52:11;21.70;70.80
4406;DHT22;2216;53.806;11.598;2023-09-30T11:54:40;21.70;69.90
4406;DHT22;2216;53.806;11.598;2023-09-30T11:57:12;21.70;69.80
4406;DHT22;2216;53.806;11.598;2023-09-30T11:59:43;21.80;70.20
4406;DHT22;2216;53.806;11.598;2023-09-30T12:02:10;21.80;70.00
4406;DHT22;2216;53.806;11.598;2023-09-30T12:04:38;21.90;70.20
4406;DHT22;2216;53.806;11.598;2023-09-30T12:07:04;22.00;70.20
4406;DHT22;2216;53.806;11.598;2023-09-30T12:09:32;22.00;69.40
4406;DHT22;2216;53.806;11.598;2023-09-30T12:11:58;22.00;69.50
4406;DHT22;2216;53.806;11.598;2023-09-30T12:14:24;22.10;69.70
4406;DHT22;2216;53.806;11.598;2023-09-30T12:16:50;22.10;69.40
4406;DHT22;2216;53.806;11.598;2023-09-30T12:19:18;22.00;69.20
4406;DHT22;2216;53.806;11.598;2023-09-30T12:21:44;22.00;69.10
4406;DHT22;2216;53.806;11.598;2023-09-30T12:24:12;22.00;69.40
4406;DHT22;2216;53.806;11.598;2023-09-30T12:26:46;22.00;68.60
4406;DHT22;2216;53.806;11.598;2023-09-30T12:29:15;22.00;68.70
4406;DHT22;2216;53.806;11.598;2023-09-30T12:31:48;22.10;68.70
4406;DHT22;2216;53.806;11.598;2023-09-30T12:34:15;22.10;68.90
4406;DHT22;2216;53.806;11.598;2023-09-30T12:36:41;22.10;68.90
4406;DHT22;2216;53.806;11.598;2023-09-30T12:39:11;22.00;68.50
4406;DHT22;2216;53.806;11.598;2023-09-30T12:41:40;22.00;68.40
4406;DHT22;2216;53.806;11.598;2023-09-30T12:44:07;22.00;68.50
4406;DHT22;2216;53.806;11.598;2023-09-30T12:46:34;21.90;68.50
4406;DHT22;2216;53.806;11.598;2023-09-30T12:49:08;21.90;68.00
4406;DHT22;2216;53.806;11.598;2023-09-30T12:51:35;21.80;68.60
4406;DHT22;2216;53.806;11.598;2023-09-30T12:54:02;21.80;68.20
4406;DHT22;2216;53.806;11.598;2023-09-30T12:56:28;21.70;67.90
4406;DHT22;2216;53.806;11.598;2023-09-30T12:58:55;21.60;67.50
4406;DHT22;2216;53.806;11.598;2023-09-30T13:01:21;21.50;67.80
4406;DHT22;2216;53.806;11.598;2023-09-30T13:03:48;21.40;68.10
4406;DHT22;2216;53.806;11.598;2023-09-30T13:06:14;21.30;68.00
4406;DHT22;2216;53.806;11.598;2023-09-30T13:08:41;21.30;68.40
4406;DHT22;2216;53.806;11.598;2023-09-30T13:11:07;21.30;67.70
4406;DHT22;2216;53.806;11.598;2023-09-30T13:13:33;21.20;67.90
4406;DHT22;2216;53.806;11.598;2023-09-30T13:16:01;21.10;67.70
4406;DHT22;2216;53.806;11.598;2023-09-30T13:18:27;21.00;67.90
4406;DHT22;2216;53.806;11.598;2023-09-30T13:20:53;20.90;68.00
4406;DHT22;2216;53.806;11.598;2023-09-30T13:23:20;20.90;68.10
4406;DHT22;2216;53.806;11.598;2023-09-30T13:25:46;20.80;68.30
4406;DHT22;2216;53.806;11.598;2023-09-30T13:28:12;20.80;68.50
4406;DHT22;2216;53.806;11.598;2023-09-30T13:30:38;20.80;68.30
4406;DHT22;2216;53.806;11.598;2023-09-30T13:33:04;20.90;68.20
4406;DHT22;2216;53.806;11.598;2023-09-30T13:35:30;20.70;68.30
4406;DHT22;2216;53.806;11.598;2023-09-30T13:37:57;20.70;68.50
4406;DHT22;2216;53.806;11.598;2023-09-30T13:40:23;20.60;68.30
4406;DHT22;2216;53.806;11.598;2023-09-30T13:42:49;20.60;68.40
4406;DHT22;2216;53.806;11.598;2023-09-30T13:45:14;20.60;68.60
4406;DHT22;2216;53.806;11.598;2023-09-30T13:47:42;20.60;68.40
4406;DHT22;2216;53.806;11.598;2023-09-30T13:50:08;20.70;68.50
4406;DHT22;2216;53.806;11.598;2023-09-30T13:52:35;20.60;68.40
4406;DHT22;2216;53.806;11.598;2023-09-30T13:55:01;20.60;68.50
4406;DHT22;2216;53.806;11.598;2023-09-30T13:57:28;20.50;69.00
4406;DHT22;2216;53.806;11.598;2023-09-30T13:59:54;20.50;68.40
4406;DHT22;2216;53.806;11.598;2023-09-30T14:02:20;20.50;68.40
4406;DHT22;2216;53.806;11.598;2023-09-30T14:04:46;20.40;68.30
4406;DHT22;2216;53.806;11.598;2023-09-30T14:07:11;20.40;68.40
4406;DHT22;2216;53.806;11.598;2023-09-30T14:09:37;20.40;68.20
4406;DHT22;2216;53.806;11.598;2023-09-30T14:12:03;20.30;68.20
4406;DHT22;2216;53.806;11.598;2023-09-30T14:14:32;20.20;67.90
4406;DHT22;2216;53.806;11.598;2023-09-30T14:16:59;20.20;68.00
4406;DHT22;2216;53.806;11.598;2023-09-30T14:19:25;20.30;68.10
4406;DHT22;2216;53.806;11.598;2023-09-30T14:21:50;20.30;68.30
4406;DHT22;2216;53.806;11.598;2023-09-30T14:24:17;20.20;68.30
4406;DHT22;2216;53.806;11.598;2023-09-30T14:26:42;20.20;68.20
4406;DHT22;2216;53.806;11.598;2023-09-30T14:29:09;20.20;68.20
4406;DHT22;2216;53.806;11.598;2023-09-30T14:31:37;20.30;68.40
4406;DHT22;2216;53.806;11.598;2023-09-30T14:34:03;20.30;68.60
4406;DHT22;2216;53.806;11.598;2023-09-30T14:36:30;20.30;67.70
4406;DHT22;2216;53.806;11.598;2023-09-30T14:38:58;20.30;67.80
4406;DHT22;2216;53.806;11.598;2023-09-30T14:41:24;20.30;68.10
4406;DHT22;2216;53.806;11.598;2023-09-30T14:43:50;20.20;67.80
4406;DHT22;2216;53.806;11.598;2023-09-30T14:46:16;20.30;68.10
4406;DHT22;2216;53.806;11.598;2023-09-30T14:48:42;20.20;67.90
4406;DHT22;2216;53.806;11.598;2023-09-30T14:51:09;20.30;68.10
4406;DHT22;2216;53.806;11.598;2023-09-30T14:53:35;20.20;67.70
4406;DHT22;2216;53.806;11.598;2023-09-30T14:56:01;20.20;67.70
4406;DHT22;2216;53.806;11.598;2023-09-30T14:58:27;20.20;67.70
4406;DHT22;2216;53.806;11.598;2023-09-30T15:00:52;20.10;67.40
4406;DHT22;2216;53.806;11.598;2023-09-30T15:03:19;20.00;67.30
4406;DHT22;2216;53.806;11.598;2023-09-30T15:05:47;20.00;67.50
4406;DHT22;2216;53.806;11.598;2023-09-30T15:08:14;19.90;67.50
4406;DHT22;2216;53.806;11.598;2023-09-30T15:10:41;19.80;67.60
4406;DHT22;2216;53.806;11.598;2023-09-30T15:13:06;19.80;67.60
4406;DHT22;2216;53.806;11.598;2023-09-30T15:15:37;19.80;67.70
4406;DHT22;2216;53.806;11.598;2023-09-30T15:18:03;19.70;67.50
4406;DHT22;2216;53.806;11.598;2023-09-30T15:20:29;19.60;67.40
4406;DHT22;2216;53.806;11.598;2023-09-30T15:22:55;19.60;67.50
4406;DHT22;2216;53.806;11.598;2023-09-30T15:25:21;19.50;67.30
4406;DHT22;2216;53.806;11.598;2023-09-30T15:27:47;19.50;67.40
4406;DHT22;2216;53.806;11.598;2023-09-30T15:30:13;19.40;67.50
4406;DHT22;2216;53.806;11.598;2023-09-30T15:32:39;19.40;67.70
4406;DHT22;2216;53.806;11.598;2023-09-30T15:35:06;19.40;67.80
4406;DHT22;2216;53.806;11.598;2023-09-30T15:37:34;19.30;67.70
4406;DHT22;2216;53.806;11.598;2023-09-30T15:39:59;19.30;67.70
4406;DHT22;2216;53.806;11.598;2023-09-30T15:42:25;19.20;67.60
4406;DHT22;2216;53.806;11.598;2023-09-30T15:44:51;19.20;67.50
4406;DHT22;2216;53.806;11.598;2023-09-30T15:47:21;19.10;67.60
4406;DHT22;2216;53.806;11.598;2023-09-30T15:49:47;19.00;67.50
4406;DHT22;2216;53.806;11.598;2023-09-30T15:52:13;19.00;67.60
4406;DHT22;2216;53.806;11.598;2023-09-30T15:54:39;18.90;67.40
4406;DHT22;2216;53.806;11.598;2023-09-30T15:57:05;18.90;67.30
4406;DHT22;2216;53.806;11.598;2023-09-30T15:59:30;18.80;67.30
4406;DHT22;2216;53.806;11.598;2023-09-30T16:01:56;18.80;67.40
4406;DHT22;2216;53.806;11.598;2023-09-30T16:04:22;18.70;67.30
4406;DHT22;2216;53.806;11.598;2023-09-30T16:06:47;18.70;67.40
4406;DHT22;2216;53.806;11.598;2023-09-30T16:09:13;18.60;67.40
4406;DHT22;2216;53.806;11.598;2023-09-30T16:11:39;18.60;67.60
4406;DHT22;2216;53.806;11.598;2023-09-30T16:14:04;18.50;67.50